sensor_id;sensor_type;location;lat;lon;timestamp;P1;durP1;ratioP1;P2;durP2;ratioP2
5730;SDS011;2890;51.950;7.668;2022-09-27T00:02:03;9.37;;;4.63;;
5730;SDS011;2890;51.950;7.668;2022-09-27T00:04:29;9.70;;;5.40;;
5730;SDS011;2890;51.950;7.668;2022-09-27T00:06:57;13.60;;;5.47;;
5730;SDS011;2890;51.950;7.668;2022-09-27T00:09:26;9.80;;;5.00;;
5730;SDS011;2890;51.950;7.668;2022-09-27T00:11:53;10.90;;;5.85;;
5730;SDS011;2890;51.950;7.668;2022-09-27T00:14:19;15.50;;;5.90;;
5730;SDS011;2890;51.950;7.668;2022-09-27T00:16:46;15.27;;;5.67;;
5730;SDS011;2890;51.950;7.668;2022-09-27T00:19:13;11.17;;;4.90;;
5730;SDS011;2890;51.950;7.668;2022-09-27T00:21:42;21.00;;;5.83;;
5730;SDS011;2890;51.950;7.668;2022-09-27T00:24:12;13.23;;;6.33;;
5730;SDS011;2890;51.950;7.668;2022-09-27T00:26:40;13.27;;;5.50;;
5730;SDS011;2890;51.950;7.668;2022-09-27T00:29:08;8.00;;;4.67;;
5730;SDS011;2890;51.950;7.668;2022-09-27T00:31:35;12.73;;;5.17;;
5730;SDS011;2890;51.950;7.668;2022-09-27T00:34:03;12.03;;;4.97;;
5730;SDS011;2890;51.950;7.668;2022-09-27T00:36:31;12.40;;;5.20;;
5730;SDS011;2890;51.950;7.668;2022-09-27T00:38:59;8.50;;;4.77;;
5730;SDS011;2890;51.950;7.668;2022-09-27T00:41:29;9.87;;;4.87;;
5730;SDS011;2890;51.950;7.668;2022-09-27T00:43:58;11.90;;;6.00;;
5730;SDS011;2890;51.950;7.668;2022-09-27T00:46:29;6.20;;;4.03;;
5730;SDS011;2890;51.950;7.668;2022-09-27T00:49:00;10.20;;;4.23;;
5730;SDS011;2890;51.950;7.668;2022-09-27T00:51:31;11.13;;;3.90;;
5730;SDS011;2890;51.950;7.668;2022-09-27T00:53:59;7.53;;;4.40;;
5730;SDS011;2890;51.950;7.668;2022-09-27T00:56:29;9.77;;;4.33;;
5730;SDS011;2890;51.950;7.668;2022-09-27T00:58:58;10.43;;;4.03;;
5730;SDS011;2890;51.950;7.668;2022-09-27T01:01:31;7.03;;;3.70;;
5730;SDS011;2890;51.950;7.668;2022-09-27T01:03:59;8.90;;;4.13;;
5730;SDS011;2890;51.950;7.668;2022-09-27T01:06:29;8.07;;;3.30;;
5730;SDS011;2890;51.950;7.668;2022-09-27T01:08:56;6.60;;;3.10;;
5730;SDS011;2890;51.950;7.668;2022-09-27T01:11:26;8.23;;;3.30;;
5730;SDS011;2890;51.950;7.668;2022-09-27T01:14:09;10.30;;;3.40;;
5730;SDS011;2890;51.950;7.668;2022-09-27T01:16:51;9.83;;;3.17;;
5730;SDS011;2890;51.950;7.668;2022-09-27T01:19:34;9.63;;;3.10;;
5730;SDS011;2890;51.950;7.668;2022-09-27T01:22:16;9.80;;;3.00;;
5730;SDS011;2890;51.950;7.668;2022-09-27T01:24:52;9.90;;;2.70;;
5730;SDS011;2890;51.950;7.668;2022-09-27T01:30:30;8.73;;;2.60;;
5730;SDS011;2890;51.950;7.668;2022-09-27T01:33:09;7.37;;;2.30;;
5730;SDS011;2890;51.950;7.668;2022-09-27T01:35:45;9.87;;;2.20;;
5730;SDS011;2890;51.950;7.668;2022-09-27T01:38:20;6.23;;;2.73;;
5730;SDS011;2890;51.950;7.668;2022-09-27T01:40:51;5.77;;;2.50;;
5730;SDS011;2890;51.950;7.668;2022-09-27T01:43:25;7.53;;;2.70;;
5730;SDS011;2890;51.950;7.668;2022-09-27T01:46:00;10.23;;;2.43;;
5730;SDS011;2890;51.950;7.668;2022-09-27T01:48:31;6.87;;;2.10;;
5730;SDS011;2890;51.950;7.668;2022-09-27T01:51:04;10.23;;;2.97;;
5730;SDS011;2890;51.950;7.668;2022-09-27T01:53:35;5.77;;;1.80;;
5730;SDS011;2890;51.950;7.668;2022-09-27T01:56:05;4.43;;;2.20;;
5730;SDS011;2890;51.950;7.668;2022-09-27T01:58:36;4.67;;;1.97;;
5730;SDS011;2890;51.950;7.668;2022-09-27T02:01:09;5.73;;;2.10;;
5730;SDS011;2890;51.950;7.668;2022-09-27T02:03:40;7.60;;;2.13;;
5730;SDS011;2890;51.950;7.668;2022-09-27T02:06:12;6.33;;;1.90;;
5730;SDS011;2890;51.950;7.668;2022-09-27T02:08:43;6.43;;;2.10;;
5730;SDS011;2890;51.950;7.668;2022-09-27T02:11:12;6.03;;;2.23;;
5730;SDS011;2890;51.950;7.668;2022-09-27T02:13:41;5.33;;;2.30;;
5730;SDS011;2890;51.950;7.668;2022-09-27T02:16:16;2.33;;;2.13;;
5730;SDS011;2890;51.950;7.668;2022-09-27T02:18:50;5.93;;;1.90;;
5730;SDS011;2890;51.950;7.668;2022-09-27T02:21:22;6.97;;;2.67;;
5730;SDS011;2890;51.950;7.668;2022-09-27T02:23:56;6.17;;;2.23;;
5730;SDS011;2890;51.950;7.668;2022-09-27T02:26:26;5.00;;;2.20;;
5730;SDS011;2890;51.950;7.668;2022-09-27T02:28:59;5.13;;;2.00;;
5730;SDS011;2890;51.950;7.668;2022-09-27T02:31:33;2.47;;;1.80;;
5730;SDS011;2890;51.950;7.668;2022-09-27T02:34:02;4.77;;;2.00;;
5730;SDS011;2890;51.950;7.668;2022-09-27T02:36:31;13.10;;;2.40;;
5730;SDS011;2890;51.950;7.668;2022-09-27T02:38:58;5.77;;;2.17;;
5730;SDS011;2890;51.950;7.668;2022-09-27T02:41:25;6.80;;;2.07;;
5730;SDS011;2890;51.950;7.668;2022-09-27T02:43:53;4.13;;;2.30;;
5730;SDS011;2890;51.950;7.668;2022-09-27T02:46:30;4.97;;;2.23;;
5730;SDS011;2890;51.950;7.668;2022-09-27T02:49:13;3.70;;;2.10;;
5730;SDS011;2890;51.950;7.668;2022-09-27T02:51:56;4.83;;;2.20;;
5730;SDS011;2890;51.950;7.668;2022-09-27T02:54:34;2.73;;;2.00;;
5730;SDS011;2890;51.950;7.668;2022-09-27T02:57:11;5.43;;;2.33;;
5730;SDS011;2890;51.950;7.668;2022-09-27T02:59:48;6.87;;;3.37;;
5730;SDS011;2890;51.950;7.668;2022-09-27T03:02:25;3.23;;;2.17;;
5730;SDS011;2890;51.950;7.668;2022-09-27T03:04:58;2.47;;;1.97;;
5730;SDS011;2890;51.950;7.668;2022-09-27T03:07:27;6.87;;;2.00;;
5730;SDS011;2890;51.950;7.668;2022-09-27T03:09:55;4.90;;;2.27;;
5730;SDS011;2890;51.950;7.668;2022-09-27T03:12:21;4.27;;;1.70;;
5730;SDS011;2890;51.950;7.668;2022-09-27T03:14:50;7.10;;;1.90;;
5730;SDS011;2890;51.950;7.668;2022-09-27T03:17:18;5.97;;;2.20;;
5730;SDS011;2890;51.950;7.668;2022-09-27T03:19:46;3.60;;;1.63;;
5730;SDS011;2890;51.950;7.668;2022-09-27T03:22:13;4.57;;;1.70;;
5730;SDS011;2890;51.950;7.668;2022-09-27T03:24:39;3.23;;;1.83;;
5730;SDS011;2890;51.950;7.668;2022-09-27T03:27:06;3.70;;;1.97;;
5730;SDS011;2890;51.950;7.668;2022-09-27T03:29:34;4.77;;;1.83;;
5730;SDS011;2890;51.950;7.668;2022-09-27T03:32:01;2.10;;;1.73;;
5730;SDS011;2890;51.950;7.668;2022-09-27T03:34:27;4.13;;;2.80;;
5730;SDS011;2890;51.950;7.668;2022-09-27T03:36:56;6.80;;;1.93;;
5730;SDS011;2890;51.950;7.668;2022-09-27T03:39:22;2.53;;;1.63;;
5730;SDS011;2890;51.950;7.668;2022-09-27T03:41:49;3.43;;;1.80;;
5730;SDS011;2890;51.950;7.668;2022-09-27T03:44:17;6.50;;;2.10;;
5730;SDS011;2890;51.950;7.668;2022-09-27T03:46:44;2.80;;;2.60;;
5730;SDS011;2890;51.950;7.668;2022-09-27T03:49:11;6.50;;;1.90;;
5730;SDS011;2890;51.950;7.668;2022-09-27T03:51:38;5.73;;;2.13;;
5730;SDS011;2890;51.950;7.668;2022-09-27T03:54:06;6.27;;;1.83;;
5730;SDS011;2890;51.950;7.668;2022-09-27T03:56:33;6.70;;;1.97;;
5730;SDS011;2890;51.950;7.668;2022-09-27T03:59:00;2.07;;;1.67;;
5730;SDS011;2890;51.950;7.668;2022-09-27T04:01:27;2.20;;;1.67;;
5730;SDS011;2890;51.950;7.668;2022-09-27T04:03:54;5.00;;;1.90;;
5730;SDS011;2890;51.950;7.668;2022-09-27T04:06:21;6.93;;;2.27;;
5730;SDS011;2890;51.950;7.668;2022-09-27T04:08:48;2.67;;;2.10;;
5730;SDS011;2890;51.950;7.668;2022-09-27T04:11:16;6.40;;;2.57;;
5730;SDS011;2890;51.950;7.668;2022-09-27T04:13:42;4.43;;;1.87;;
5730;SDS011;2890;51.950;7.668;2022-09-27T04:16:09;4.97;;;1.77;;
5730;SDS011;2890;51.950;7.668;2022-09-27T04:18:36;5.17;;;1.93;;
5730;SDS011;2890;51.950;7.668;2022-09-27T04:21:03;3.70;;;1.70;;
5730;SDS011;2890;51.950;7.668;2022-09-27T04:23:30;9.83;;;2.13;;
5730;SDS011;2890;51.950;7.668;2022-09-27T04:25:57;5.93;;;2.20;;
5730;SDS011;2890;51.950;7.668;2022-09-27T04:28:25;4.10;;;1.97;;
5730;SDS011;2890;51.950;7.668;2022-09-27T04:30:54;3.10;;;2.27;;
5730;SDS011;2890;51.950;7.668;2022-09-27T04:33:21;6.03;;;2.10;;
5730;SDS011;2890;51.950;7.668;2022-09-27T04:35:47;4.57;;;2.17;;
5730;SDS011;2890;51.950;7.668;2022-09-27T04:38:32;8.27;;;2.50;;
5730;SDS011;2890;51.950;7.668;2022-09-27T04:40:59;8.17;;;2.93;;
5730;SDS011;2890;51.950;7.668;2022-09-27T04:43:27;4.03;;;2.20;;
5730;SDS011;2890;51.950;7.668;2022-09-27T04:45:54;2.50;;;2.10;;
5730;SDS011;2890;51.950;7.668;2022-09-27T04:48:21;4.33;;;2.37;;
5730;SDS011;2890;51.950;7.668;2022-09-27T04:50:54;5.87;;;2.60;;
5730;SDS011;2890;51.950;7.668;2022-09-27T04:53:21;7.00;;;2.53;;
5730;SDS011;2890;51.950;7.668;2022-09-27T04:55:48;4.07;;;3.07;;
5730;SDS011;2890;51.950;7.668;2022-09-27T04:58:15;3.87;;;2.23;;
5730;SDS011;2890;51.950;7.668;2022-09-27T05:00:43;5.87;;;2.53;;
5730;SDS011;2890;51.950;7.668;2022-09-27T05:03:11;5.77;;;2.30;;
5730;SDS011;2890;51.950;7.668;2022-09-27T05:05:38;6.23;;;2.40;;
5730;SDS011;2890;51.950;7.668;2022-09-27T05:08:05;4.07;;;2.17;;
5730;SDS011;2890;51.950;7.668;2022-09-27T05:10:32;4.63;;;2.13;;
5730;SDS011;2890;51.950;7.668;2022-09-27T05:12:59;5.57;;;2.70;;
5730;SDS011;2890;51.950;7.668;2022-09-27T05:15:26;4.73;;;4.10;;
5730;SDS011;2890;51.950;7.668;2022-09-27T05:17:54;8.20;;;3.47;;
5730;SDS011;2890;51.950;7.668;2022-09-27T05:20:22;3.10;;;2.43;;
5730;SDS011;2890;51.950;7.668;2022-09-27T05:22:49;4.77;;;2.50;;
5730;SDS011;2890;51.950;7.668;2022-09-27T05:25:16;5.57;;;2.70;;
5730;SDS011;2890;51.950;7.668;2022-09-27T05:27:43;6.20;;;2.40;;
5730;SDS011;2890;51.950;7.668;2022-09-27T05:30:10;3.57;;;2.73;;
5730;SDS011;2890;51.950;7.668;2022-09-27T05:32:38;5.10;;;2.70;;
5730;SDS011;2890;51.950;7.668;2022-09-27T05:35:09;6.13;;;3.03;;
5730;SDS011;2890;51.950;7.668;2022-09-27T05:37:36;7.10;;;2.70;;
5730;SDS011;2890;51.950;7.668;2022-09-27T05:40:05;5.90;;;2.80;;
5730;SDS011;2890;51.950;7.668;2022-09-27T05:42:32;6.63;;;3.00;;
5730;SDS011;2890;51.950;7.668;2022-09-27T05:44:59;4.30;;;3.00;;
5730;SDS011;2890;51.950;7.668;2022-09-27T05:47:26;10.23;;;3.00;;
5730;SDS011;2890;51.950;7.668;2022-09-27T05:49:53;4.77;;;2.87;;
5730;SDS011;2890;51.950;7.668;2022-09-27T05:52:21;5.17;;;3.23;;
5730;SDS011;2890;51.950;7.668;2022-09-27T05:54:48;5.50;;;3.23;;
5730;SDS011;2890;51.950;7.668;2022-09-27T05:57:14;8.40;;;3.17;;
5730;SDS011;2890;51.950;7.668;2022-09-27T05:59:41;6.70;;;3.67;;
5730;SDS011;2890;51.950;7.668;2022-09-27T06:02:08;7.83;;;4.57;;
5730;SDS011;2890;51.950;7.668;2022-09-27T06:04:35;6.77;;;3.70;;
5730;SDS011;2890;51.950;7.668;2022-09-27T06:07:02;6.53;;;4.00;;
5730;SDS011;2890;51.950;7.668;2022-09-27T06:09:30;6.73;;;4.47;;
5730;SDS011;2890;51.950;7.668;2022-09-27T06:11:57;9.53;;;5.10;;
5730;SDS011;2890;51.950;7.668;2022-09-27T06:14:23;11.83;;;6.10;;
5730;SDS011;2890;51.950;7.668;2022-09-27T06:16:51;8.70;;;5.80;;
5730;SDS011;2890;51.950;7.668;2022-09-27T06:19:19;11.17;;;6.07;;
5730;SDS011;2890;51.950;7.668;2022-09-27T06:21:47;8.53;;;5.27;;
5730;SDS011;2890;51.950;7.668;2022-09-27T06:24:14;9.53;;;6.20;;
5730;SDS011;2890;51.950;7.668;2022-09-27T06:26:42;7.97;;;5.70;;
5730;SDS011;2890;51.950;7.668;2022-09-27T06:29:10;7.60;;;5.90;;
5730;SDS011;2890;51.950;7.668;2022-09-27T06:31:37;10.73;;;5.70;;
5730;SDS011;2890;51.950;7.668;2022-09-27T06:34:03;7.10;;;5.03;;
5730;SDS011;2890;51.950;7.668;2022-09-27T06:36:30;9.40;;;5.33;;
5730;SDS011;2890;51.950;7.668;2022-09-27T06:38:57;12.57;;;6.13;;
5730;SDS011;2890;51.950;7.668;2022-09-27T06:41:25;9.17;;;4.50;;
5730;SDS011;2890;51.950;7.668;2022-09-27T06:43:53;5.50;;;4.33;;
5730;SDS011;2890;51.950;7.668;2022-09-27T06:46:20;7.93;;;4.30;;
5730;SDS011;2890;51.950;7.668;2022-09-27T06:48:47;9.13;;;3.97;;
5730;SDS011;2890;51.950;7.668;2022-09-27T06:51:14;10.70;;;4.00;;
5730;SDS011;2890;51.950;7.668;2022-09-27T06:53:41;8.43;;;4.23;;
5730;SDS011;2890;51.950;7.668;2022-09-27T06:56:08;6.80;;;3.93;;
5730;SDS011;2890;51.950;7.668;2022-09-27T06:58:35;5.10;;;4.17;;
5730;SDS011;2890;51.950;7.668;2022-09-27T07:01:21;7.97;;;3.73;;
5730;SDS011;2890;51.950;7.668;2022-09-27T07:03:52;8.63;;;4.63;;
5730;SDS011;2890;51.950;7.668;2022-09-27T07:06:19;8.30;;;3.80;;
5730;SDS011;2890;51.950;7.668;2022-09-27T07:08:48;7.90;;;4.03;;
5730;SDS011;2890;51.950;7.668;2022-09-27T07:11:17;9.87;;;4.37;;
5730;SDS011;2890;51.950;7.668;2022-09-27T07:13:44;7.07;;;4.47;;
5730;SDS011;2890;51.950;7.668;2022-09-27T07:16:11;9.37;;;4.53;;
5730;SDS011;2890;51.950;7.668;2022-09-27T07:18:39;9.30;;;4.17;;
5730;SDS011;2890;51.950;7.668;2022-09-27T07:21:07;9.73;;;4.67;;
5730;SDS011;2890;51.950;7.668;2022-09-27T07:23:34;15.00;;;5.57;;
5730;SDS011;2890;51.950;7.668;2022-09-27T07:26:02;7.40;;;3.80;;
5730;SDS011;2890;51.950;7.668;2022-09-27T07:28:30;6.47;;;3.10;;
5730;SDS011;2890;51.950;7.668;2022-09-27T07:30:57;11.73;;;3.30;;
5730;SDS011;2890;51.950;7.668;2022-09-27T07:33:26;8.10;;;3.15;;
5730;SDS011;2890;51.950;7.668;2022-09-27T07:35:54;5.60;;;2.67;;
5730;SDS011;2890;51.950;7.668;2022-09-27T07:38:21;5.40;;;2.70;;
5730;SDS011;2890;51.950;7.668;2022-09-27T07:40:48;6.87;;;2.90;;
5730;SDS011;2890;51.950;7.668;2022-09-27T07:43:15;6.77;;;2.90;;
5730;SDS011;2890;51.950;7.668;2022-09-27T07:45:43;7.60;;;2.60;;
5730;SDS011;2890;51.950;7.668;2022-09-27T07:48:11;6.60;;;3.20;;
5730;SDS011;2890;51.950;7.668;2022-09-27T07:50:40;6.17;;;2.90;;
5730;SDS011;2890;51.950;7.668;2022-09-27T07:53:08;6.33;;;3.03;;
5730;SDS011;2890;51.950;7.668;2022-09-27T07:55:37;9.43;;;3.47;;
5730;SDS011;2890;51.950;7.668;2022-09-27T07:58:04;8.13;;;3.23;;
5730;SDS011;2890;51.950;7.668;2022-09-27T08:00:33;8.23;;;2.90;;
5730;SDS011;2890;51.950;7.668;2022-09-27T08:03:02;7.67;;;2.50;;
5730;SDS011;2890;51.950;7.668;2022-09-27T08:05:30;8.80;;;2.63;;
5730;SDS011;2890;51.950;7.668;2022-09-27T08:07:58;5.30;;;2.33;;
5730;SDS011;2890;51.950;7.668;2022-09-27T08:10:27;3.05;;;1.30;;
5730;SDS011;2890;51.950;7.668;2022-09-27T08:12:55;4.43;;;1.67;;
5730;SDS011;2890;51.950;7.668;2022-09-27T08:15:22;2.85;;;1.67;;
5730;SDS011;2890;51.950;7.668;2022-09-27T08:17:49;3.15;;;1.88;;
5730;SDS011;2890;51.950;7.668;2022-09-27T08:20:16;4.63;;;1.30;;
5730;SDS011;2890;51.950;7.668;2022-09-27T08:22:42;4.30;;;1.92;;
5730;SDS011;2890;51.950;7.668;2022-09-27T08:25:10;4.13;;;1.55;;
5730;SDS011;2890;51.950;7.668;2022-09-27T08:27:39;2.92;;;1.42;;
5730;SDS011;2890;51.950;7.668;2022-09-27T08:30:07;3.20;;;1.67;;
5730;SDS011;2890;51.950;7.668;2022-09-27T08:32:34;4.10;;;1.33;;
5730;SDS011;2890;51.950;7.668;2022-09-27T08:35:02;2.75;;;1.13;;
5730;SDS011;2890;51.950;7.668;2022-09-27T08:37:31;2.30;;;1.50;;
5730;SDS011;2890;51.950;7.668;2022-09-27T08:39:58;3.65;;;1.85;;
5730;SDS011;2890;51.950;7.668;2022-09-27T08:42:27;3.03;;;1.42;;
5730;SDS011;2890;51.950;7.668;2022-09-27T08:45:07;4.93;;;1.40;;
5730;SDS011;2890;51.950;7.668;2022-09-27T08:47:39;4.78;;;1.30;;
5730;SDS011;2890;51.950;7.668;2022-09-27T08:50:12;4.38;;;1.58;;
5730;SDS011;2890;51.950;7.668;2022-09-27T08:52:49;5.15;;;1.70;;
5730;SDS011;2890;51.950;7.668;2022-09-27T08:55:21;3.45;;;1.30;;
5730;SDS011;2890;51.950;7.668;2022-09-27T08:57:55;3.75;;;1.25;;
5730;SDS011;2890;51.950;7.668;2022-09-27T09:00:25;5.85;;;2.15;;
5730;SDS011;2890;51.950;7.668;2022-09-27T09:02:54;2.75;;;1.73;;
5730;SDS011;2890;51.950;7.668;2022-09-27T09:05:23;4.07;;;1.90;;
5730;SDS011;2890;51.950;7.668;2022-09-27T09:08:00;2.53;;;1.33;;
5730;SDS011;2890;51.950;7.668;2022-09-27T09:10:45;2.40;;;1.40;;
5730;SDS011;2890;51.950;7.668;2022-09-27T09:13:39;2.67;;;1.33;;
5730;SDS011;2890;51.950;7.668;2022-09-27T09:16:37;2.90;;;1.50;;
5730;SDS011;2890;51.950;7.668;2022-09-27T09:19:15;2.28;;;1.48;;
5730;SDS011;2890;51.950;7.668;2022-09-27T09:21:58;4.55;;;1.40;;
5730;SDS011;2890;51.950;7.668;2022-09-27T09:24:42;4.28;;;1.30;;
5730;SDS011;2890;51.950;7.668;2022-09-27T09:27:20;4.77;;;1.83;;
5730;SDS011;2890;51.950;7.668;2022-09-27T09:29:58;2.67;;;1.67;;
5730;SDS011;2890;51.950;7.668;2022-09-27T09:32:35;3.20;;;1.30;;
5730;SDS011;2890;51.950;7.668;2022-09-27T09:35:11;3.50;;;1.60;;
5730;SDS011;2890;51.950;7.668;2022-09-27T09:37:42;3.22;;;1.58;;
5730;SDS011;2890;51.950;7.668;2022-09-27T09:40:14;2.85;;;1.30;;
5730;SDS011;2890;51.950;7.668;2022-09-27T09:42:46;1.20;;;1.00;;
5730;SDS011;2890;51.950;7.668;2022-09-27T09:45:17;2.65;;;1.73;;
5730;SDS011;2890;51.950;7.668;2022-09-27T09:47:49;3.65;;;1.00;;
5730;SDS011;2890;51.950;7.668;2022-09-27T09:50:20;2.53;;;1.13;;
5730;SDS011;2890;51.950;7.668;2022-09-27T09:52:52;1.27;;;1.15;;
5730;SDS011;2890;51.950;7.668;2022-09-27T09:55:24;1.73;;;1.02;;
5730;SDS011;2890;51.950;7.668;2022-09-27T09:57:58;1.75;;;1.23;;
5730;SDS011;2890;51.950;7.668;2022-09-27T10:00:27;3.60;;;1.48;;
5730;SDS011;2890;51.950;7.668;2022-09-27T10:02:57;1.92;;;1.20;;
5730;SDS011;2890;51.950;7.668;2022-09-27T10:05:25;2.35;;;2.10;;
5730;SDS011;2890;51.950;7.668;2022-09-27T10:07:54;12.77;;;7.13;;
5730;SDS011;2890;51.950;7.668;2022-09-27T10:10:24;4.82;;;3.78;;
5730;SDS011;2890;51.950;7.668;2022-09-27T10:12:52;4.85;;;3.88;;
5730;SDS011;2890;51.950;7.668;2022-09-27T10:15:20;5.53;;;2.17;;
5730;SDS011;2890;51.950;7.668;2022-09-27T10:17:49;5.03;;;2.78;;
5730;SDS011;2890;51.950;7.668;2022-09-27T10:20:26;4.32;;;1.73;;
5730;SDS011;2890;51.950;7.668;2022-09-27T10:22:58;8.65;;;1.88;;
5730;SDS011;2890;51.950;7.668;2022-09-27T10:25:44;2.88;;;1.45;;
5730;SDS011;2890;51.950;7.668;2022-09-27T10:28:25;1.55;;;1.40;;
5730;SDS011;2890;51.950;7.668;2022-09-27T10:30:56;2.05;;;1.45;;
5730;SDS011;2890;51.950;7.668;2022-09-27T10:33:26;1.77;;;1.30;;
5730;SDS011;2890;51.950;7.668;2022-09-27T10:35:57;1.38;;;1.27;;
5730;SDS011;2890;51.950;7.668;2022-09-27T10:38:25;2.08;;;1.17;;
5730;SDS011;2890;51.950;7.668;2022-09-27T10:40:54;4.10;;;1.90;;
5730;SDS011;2890;51.950;7.668;2022-09-27T10:43:23;1.38;;;0.95;;
5730;SDS011;2890;51.950;7.668;2022-09-27T10:45:58;2.33;;;1.20;;
5730;SDS011;2890;51.950;7.668;2022-09-27T10:48:28;1.55;;;1.45;;
5730;SDS011;2890;51.950;7.668;2022-09-27T10:50:56;1.75;;;1.30;;
5730;SDS011;2890;51.950;7.668;2022-09-27T10:53:26;3.33;;;1.33;;
5730;SDS011;2890;51.950;7.668;2022-09-27T10:55:54;2.35;;;2.15;;
5730;SDS011;2890;51.950;7.668;2022-09-27T10:58:24;4.55;;;1.73;;
5730;SDS011;2890;51.950;7.668;2022-09-27T11:00:54;1.80;;;1.30;;
5730;SDS011;2890;51.950;7.668;2022-09-27T11:03:25;5.15;;;1.42;;
5730;SDS011;2890;51.950;7.668;2022-09-27T11:05:53;2.10;;;1.63;;
5730;SDS011;2890;51.950;7.668;2022-09-27T11:08:22;1.45;;;1.38;;
5730;SDS011;2890;51.950;7.668;2022-09-27T11:11:01;3.88;;;1.40;;
5730;SDS011;2890;51.950;7.668;2022-09-27T11:13:30;3.90;;;1.52;;
5730;SDS011;2890;51.950;7.668;2022-09-27T11:16:03;3.05;;;2.00;;
5730;SDS011;2890;51.950;7.668;2022-09-27T11:18:45;3.75;;;1.90;;
5730;SDS011;2890;51.950;7.668;2022-09-27T11:21:21;4.07;;;1.63;;
5730;SDS011;2890;51.950;7.668;2022-09-27T11:24:05;3.72;;;1.95;;
5730;SDS011;2890;51.950;7.668;2022-09-27T11:26:43;6.30;;;2.13;;
5730;SDS011;2890;51.950;7.668;2022-09-27T11:29:24;1.85;;;1.58;;
5730;SDS011;2890;51.950;7.668;2022-09-27T11:32:12;3.57;;;1.40;;
5730;SDS011;2890;51.950;7.668;2022-09-27T11:34:50;2.10;;;1.70;;
5730;SDS011;2890;51.950;7.668;2022-09-27T11:37:30;2.30;;;1.97;;
5730;SDS011;2890;51.950;7.668;2022-09-27T11:40:14;2.27;;;1.80;;
5730;SDS011;2890;51.950;7.668;2022-09-27T11:42:58;2.88;;;1.70;;
5730;SDS011;2890;51.950;7.668;2022-09-27T11:45:40;1.97;;;1.70;;
5730;SDS011;2890;51.950;7.668;2022-09-27T11:48:18;4.05;;;1.90;;
5730;SDS011;2890;51.950;7.668;2022-09-27T11:50:57;2.90;;;1.70;;
5730;SDS011;2890;51.950;7.668;2022-09-27T11:53:42;2.25;;;1.83;;
5730;SDS011;2890;51.950;7.668;2022-09-27T11:56:21;3.45;;;1.60;;
5730;SDS011;2890;51.950;7.668;2022-09-27T11:59:04;2.20;;;1.40;;
5730;SDS011;2890;51.950;7.668;2022-09-27T12:01:52;4.40;;;1.60;;
5730;SDS011;2890;51.950;7.668;2022-09-27T12:07:25;1.75;;;1.33;;
5730;SDS011;2890;51.950;7.668;2022-09-27T12:10:00;1.67;;;1.50;;
5730;SDS011;2890;51.950;7.668;2022-09-27T12:12:34;1.52;;;1.30;;
5730;SDS011;2890;51.950;7.668;2022-09-27T12:15:10;1.98;;;1.17;;
5730;SDS011;2890;51.950;7.668;2022-09-27T12:17:41;4.65;;;2.72;;
5730;SDS011;2890;51.950;7.668;2022-09-27T12:20:13;1.20;;;1.10;;
5730;SDS011;2890;51.950;7.668;2022-09-27T12:22:48;1.23;;;1.13;;
5730;SDS011;2890;51.950;7.668;2022-09-27T12:25:19;1.27;;;1.03;;
5730;SDS011;2890;51.950;7.668;2022-09-27T12:27:50;3.23;;;1.10;;
5730;SDS011;2890;51.950;7.668;2022-09-27T12:30:20;1.00;;;0.93;;
5730;SDS011;2890;51.950;7.668;2022-09-27T12:32:48;1.55;;;1.45;;
5730;SDS011;2890;51.950;7.668;2022-09-27T12:35:22;1.30;;;1.20;;
5730;SDS011;2890;51.950;7.668;2022-09-27T12:37:55;3.65;;;1.55;;
5730;SDS011;2890;51.950;7.668;2022-09-27T12:40:26;1.00;;;1.00;;
5730;SDS011;2890;51.950;7.668;2022-09-27T12:42:59;1.50;;;0.97;;
5730;SDS011;2890;51.950;7.668;2022-09-27T12:45:35;1.67;;;1.00;;
5730;SDS011;2890;51.950;7.668;2022-09-27T12:48:07;1.57;;;1.10;;
5730;SDS011;2890;51.950;7.668;2022-09-27T12:50:42;3.33;;;1.03;;
5730;SDS011;2890;51.950;7.668;2022-09-27T12:53:12;1.50;;;0.93;;
5730;SDS011;2890;51.950;7.668;2022-09-27T12:55:46;1.02;;;1.00;;
5730;SDS011;2890;51.950;7.668;2022-09-27T12:58:32;1.43;;;1.03;;
5730;SDS011;2890;51.950;7.668;2022-09-27T13:01:23;2.90;;;0.90;;
5730;SDS011;2890;51.950;7.668;2022-09-27T13:04:04;1.52;;;1.40;;
5730;SDS011;2890;51.950;7.668;2022-09-27T13:09:48;1.48;;;1.38;;
5730;SDS011;2890;51.950;7.668;2022-09-27T13:12:23;1.47;;;1.37;;
5730;SDS011;2890;51.950;7.668;2022-09-27T13:14:58;4.60;;;1.70;;
5730;SDS011;2890;51.950;7.668;2022-09-27T13:17:51;1.13;;;1.13;;
5730;SDS011;2890;51.950;7.668;2022-09-27T13:20:39;2.37;;;2.17;;
5730;SDS011;2890;51.950;7.668;2022-09-27T13:29:26;1.90;;;1.70;;
5730;SDS011;2890;51.950;7.668;2022-09-27T13:32:21;2.67;;;1.90;;
5730;SDS011;2890;51.950;7.668;2022-09-27T13:34:51;2.83;;;1.83;;
5730;SDS011;2890;51.950;7.668;2022-09-27T13:37:33;2.03;;;1.70;;
5730;SDS011;2890;51.950;7.668;2022-09-27T13:40:19;3.33;;;1.83;;
5730;SDS011;2890;51.950;7.668;2022-09-27T13:42:55;2.05;;;1.90;;
5730;SDS011;2890;51.950;7.668;2022-09-27T13:45:38;4.50;;;2.30;;
5730;SDS011;2890;51.950;7.668;2022-09-27T13:48:11;2.20;;;1.93;;
5730;SDS011;2890;51.950;7.668;2022-09-27T13:50:45;4.70;;;2.33;;
5730;SDS011;2890;51.950;7.668;2022-09-27T13:53:18;2.47;;;2.00;;
5730;SDS011;2890;51.950;7.668;2022-09-27T13:55:52;3.80;;;1.70;;
5730;SDS011;2890;51.950;7.668;2022-09-27T14:01:11;2.22;;;2.03;;
5730;SDS011;2890;51.950;7.668;2022-09-27T14:03:44;2.25;;;2.00;;
5730;SDS011;2890;51.950;7.668;2022-09-27T14:06:14;1.70;;;1.57;;
5730;SDS011;2890;51.950;7.668;2022-09-27T14:08:44;2.53;;;1.33;;
5730;SDS011;2890;51.950;7.668;2022-09-27T14:11:14;2.10;;;1.90;;
5730;SDS011;2890;51.950;7.668;2022-09-27T14:13:45;2.47;;;2.17;;
5730;SDS011;2890;51.950;7.668;2022-09-27T14:16:14;3.55;;;1.83;;
5730;SDS011;2890;51.950;7.668;2022-09-27T14:18:42;2.50;;;1.57;;
5730;SDS011;2890;51.950;7.668;2022-09-27T14:21:16;3.25;;;1.77;;
5730;SDS011;2890;51.950;7.668;2022-09-27T14:23:46;3.17;;;1.98;;
5730;SDS011;2890;51.950;7.668;2022-09-27T14:26:20;2.00;;;1.67;;
5730;SDS011;2890;51.950;7.668;2022-09-27T14:28:48;3.45;;;1.70;;
5730;SDS011;2890;51.950;7.668;2022-09-27T14:31:15;1.80;;;1.70;;
5730;SDS011;2890;51.950;7.668;2022-09-27T14:33:43;2.65;;;2.45;;
5730;SDS011;2890;51.950;7.668;2022-09-27T14:36:16;3.57;;;2.17;;
5730;SDS011;2890;51.950;7.668;2022-09-27T14:39:12;1.50;;;1.40;;
5730;SDS011;2890;51.950;7.668;2022-09-27T14:41:40;1.93;;;1.60;;
5730;SDS011;2890;51.950;7.668;2022-09-27T14:44:11;1.83;;;1.73;;
5730;SDS011;2890;51.950;7.668;2022-09-27T14:46:41;1.38;;;1.38;;
5730;SDS011;2890;51.950;7.668;2022-09-27T14:51:50;2.22;;;1.67;;
5730;SDS011;2890;51.950;7.668;2022-09-27T14:54:19;1.30;;;1.20;;
5730;SDS011;2890;51.950;7.668;2022-09-27T14:56:49;2.72;;;1.30;;
5730;SDS011;2890;51.950;7.668;2022-09-27T14:59:19;2.10;;;1.77;;
5730;SDS011;2890;51.950;7.668;2022-09-27T15:01:51;2.47;;;1.70;;
5730;SDS011;2890;51.950;7.668;2022-09-27T15:04:20;1.63;;;1.23;;
5730;SDS011;2890;51.950;7.668;2022-09-27T15:06:49;0.93;;;0.93;;
5730;SDS011;2890;51.950;7.668;2022-09-27T15:09:16;2.30;;;1.50;;
5730;SDS011;2890;51.950;7.668;2022-09-27T15:11:45;2.77;;;1.97;;
5730;SDS011;2890;51.950;7.668;2022-09-27T15:14:16;1.60;;;1.50;;
5730;SDS011;2890;51.950;7.668;2022-09-27T15:16:45;1.17;;;1.07;;
5730;SDS011;2890;51.950;7.668;2022-09-27T15:19:15;2.00;;;1.73;;
5730;SDS011;2890;51.950;7.668;2022-09-27T15:21:48;1.40;;;1.30;;
5730;SDS011;2890;51.950;7.668;2022-09-27T15:24:35;1.53;;;1.33;;
5730;SDS011;2890;51.950;7.668;2022-09-27T15:27:03;2.10;;;1.97;;
5730;SDS011;2890;51.950;7.668;2022-09-27T15:29:38;1.80;;;1.70;;
5730;SDS011;2890;51.950;7.668;2022-09-27T15:32:05;2.93;;;1.57;;
5730;SDS011;2890;51.950;7.668;2022-09-27T15:34:34;1.30;;;1.03;;
5730;SDS011;2890;51.950;7.668;2022-09-27T15:37:02;2.07;;;1.97;;
5730;SDS011;2890;51.950;7.668;2022-09-27T15:39:31;2.20;;;2.00;;
5730;SDS011;2890;51.950;7.668;2022-09-27T15:42:06;1.37;;;1.20;;
5730;SDS011;2890;51.950;7.668;2022-09-27T15:44:38;6.63;;;2.03;;
5730;SDS011;2890;51.950;7.668;2022-09-27T15:52:59;1.60;;;1.48;;
5730;SDS011;2890;51.950;7.668;2022-09-27T15:55:27;2.00;;;1.50;;
5730;SDS011;2890;51.950;7.668;2022-09-27T15:57:57;1.67;;;1.40;;
5730;SDS011;2890;51.950;7.668;2022-09-27T16:00:26;4.17;;;1.60;;
5730;SDS011;2890;51.950;7.668;2022-09-27T16:02:54;20.93;;;8.27;;
5730;SDS011;2890;51.950;7.668;2022-09-27T16:05:21;8.50;;;3.17;;
5730;SDS011;2890;51.950;7.668;2022-09-27T16:07:49;5.85;;;3.15;;